KAKR/AKR METAR and TAF weather

Enter ICAO airport designator
Station Type Date Time Source
KAKR METAR 2020/04/06 08:54 UTC NOAA

KAKR 060854Z AUTO 00000KT 10SM OVC100 02/M01 A3013 RMK AO2 SLP207 T00171006 55004


Station Type Date Time Source
KAKR Decoded METAR 2020/04/06 08:54 UTC NOAA

AKRON FULTON INTERNATIONAL, OH, United States (KAKR) 41-02N 081-28W 363M
Apr 06, 2020 - 04:54 AM EDT / 2020.04.06 0854 UTC
Wind: Calm:0
Visibility: 10 mile(s):0
Sky conditions: overcast
Temperature: 35.1 F (1.7 C)
Dew Point: 30.9 F (-0.6 C)
Relative Humidity: 84%
Pressure (altimeter): 30.13 in. Hg (1020 hPa)
Pressure tendency: 0.01 inches (0.4 hPa) lower than three hours ago
ob: KAKR 060854Z AUTO 00000KT 10SM OVC100 02/M01 A3013 RMK AO2 SLP207 T00171006 55004
cycle: 9

Station Type Date Time Source
KAKR TAF UTC NOAA

Error!

Example: see airport list